MTPP Airport Information

Runway Information
Runway 10 Length 9974 ft width 141 ft
Elevation 79 ft Threshold 0 ft Heading 87
Runway 28 Length 9974 ft Width 141 ft
Elevation 122 ft Threshold 0 ft Heading 267
Airport Frequencies
Type APP Name APP Frequency 119.8 MHZ
Type TWR Name TWR Frequency 118.3 MHZ
Airport Navaids
Type NDB Name Port Au Prince Frequency 270 KHZ
Type VOR-DME Name Port Au Prince Frequency 115300 KHZ
Airport Weather Information & NOTAM
ADDS - METARS form results

(1010 UTC 22 October 2021)
Data provider http://aviationweather.gov/metar/data/
 
METAR text: MTPP 220959Z AUTO 09004KT 8000 ////// 24/23 Q1013 A2992 NOSIG
Conditions at: MTPP (PORT-AU-PRINCE , HT) observed 0959 UTC 22 October 2021
Temperature: 24.0°C (75°F)
Dewpoint: 23.0°C (73°F) [RH = 94%]
Pressure (altimeter): 29.91 inches Hg (1013.0 mb)
Winds: from the E (90 degrees) at 5 MPH (4 knots; 2.1 m/s)
Visibility: 5 miles ( 8 km)
Ceiling: unknown
Clouds: missing
Weather: no significant weather observed at this time